createdAt,value
2019-04-07T00:05:17.411Z,20.00
2019-04-07T00:20:30.872Z,19.40
2019-04-07T00:54:21.809Z,21.30
2019-04-07T00:57:08.958Z,19.60
2019-04-07T00:59:56.114Z,18.33
2019-04-07T01:15:07.796Z,22.00
2019-04-07T01:17:55.007Z,21.03
2019-04-07T01:20:41.888Z,21.93
2019-04-07T01:23:29.337Z,22.33
2019-04-07T01:26:17.362Z,23.80
2019-04-07T01:29:04.621Z,22.87
2019-04-07T01:31:58.602Z,24.07
2019-04-07T02:40:03.273Z,24.87
2019-04-07T02:42:48.519Z,24.00
2019-04-07T02:45:35.243Z,21.07
2019-04-07T04:18:37.612Z,23.13
2019-04-07T04:21:24.502Z,22.30
2019-04-07T04:36:36.058Z,21.10
2019-04-07T04:39:22.933Z,22.37
2019-04-07T04:42:10.438Z,23.20
2019-04-07T04:44:56.785Z,32.10
2019-04-07T04:57:09.341Z,19.80
2019-04-07T04:59:55.977Z,20.50
2019-04-07T05:12:08.384Z,12.90
2019-04-07T05:14:58.896Z,19.90
2019-04-07T05:17:52.621Z,15.17
2019-04-07T06:00:57.665Z,31.95
2019-04-07T06:03:44.521Z,26.67
2019-04-07T06:06:31.692Z,26.97
2019-04-07T06:12:26.357Z,26.93
2019-04-07T06:15:15.740Z,28.10
2019-04-07T06:18:01.524Z,27.43
2019-04-07T06:20:48.494Z,27.03
2019-04-07T06:23:35.358Z,27.00
2019-04-07T06:45:02.028Z,33.72
2019-04-07T06:47:51.921Z,29.90
2019-04-07T06:50:57.785Z,28.40
2019-04-07T06:53:38.164Z,29.20
2019-04-07T06:59:40.575Z,29.47
2019-04-07T07:06:01.193Z,26.73
2019-04-07T07:08:57.314Z,28.60
2019-04-07T07:11:59.346Z,27.05
2019-04-07T07:21:05.093Z,26.58
2019-04-07T07:30:12.094Z,27.00
2019-04-07T07:33:12.688Z,25.42
2019-04-07T07:35:59.546Z,26.05
2019-04-07T07:38:57.530Z,24.55
2019-04-07T07:47:54.869Z,25.35
2019-04-07T07:50:43.693Z,23.87
2019-04-07T07:53:44.961Z,23.75
2019-04-07T07:56:32.170Z,23.95
2019-04-07T07:59:19.996Z,23.92
2019-04-07T08:05:12.520Z,24.42
2019-04-07T08:08:00.599Z,24.65
2019-04-07T08:10:47.348Z,22.13
2019-04-07T08:13:41.770Z,22.40
2019-04-07T08:16:20.594Z,21.35
2019-04-07T08:19:09.391Z,21.33
2019-04-07T08:21:54.443Z,19.05
2019-04-07T08:24:41.550Z,18.73
2019-04-07T08:27:31.042Z,19.80
2019-04-07T08:30:15.332Z,19.35
2019-04-07T08:33:03.483Z,19.50
2019-04-07T08:35:50.228Z,21.08
2019-04-07T08:38:37.588Z,20.67
2019-04-07T08:41:24.473Z,19.77
2019-04-07T08:44:11.491Z,20.37
2019-04-07T08:46:58.194Z,19.77
2019-04-07T08:49:45.030Z,19.73
2019-04-07T08:52:32.200Z,19.83
2019-04-07T08:55:20.446Z,19.70
2019-04-07T08:58:06.670Z,19.05
2019-04-07T09:00:53.965Z,18.77
2019-04-07T09:03:44.451Z,17.50
2019-04-07T09:06:41.506Z,17.12
2019-04-07T09:09:34.474Z,17.40
2019-04-07T09:12:15.485Z,16.40
2019-04-07T09:15:04.368Z,15.27
2019-04-07T09:18:03.391Z,16.58
2019-04-07T09:21:10.162Z,16.92
2019-04-07T09:23:59.216Z,16.55
2019-04-07T09:26:54.475Z,15.35
2019-04-07T09:29:47.847Z,14.82
2019-04-07T09:32:41.637Z,15.45
2019-04-07T09:35:47.589Z,15.50
2019-04-07T09:38:45.962Z,15.70
2019-04-07T09:41:45.119Z,15.75
2019-04-07T09:44:43.810Z,15.75
2019-04-07T09:47:37.982Z,15.55
2019-04-07T09:53:50.525Z,14.40
2019-04-07T09:56:41.811Z,13.98
2019-04-07T09:59:35.022Z,13.15
2019-04-07T10:02:39.967Z,14.70
2019-04-07T10:05:26.792Z,13.68
2019-04-07T10:08:26.501Z,13.77
2019-04-07T10:11:17.141Z,13.52
2019-04-07T10:14:12.734Z,13.73
2019-04-07T10:17:05.457Z,13.25
2019-04-07T10:19:55.614Z,14.55
2019-04-07T10:22:42.978Z,13.25
2019-04-07T10:25:39.125Z,14.32
2019-04-07T10:28:44.181Z,15.90
2019-04-07T10:31:49.430Z,15.57
2019-04-07T10:38:04.008Z,18.58
2019-04-07T10:40:54.357Z,17.33
2019-04-07T10:43:56.192Z,19.98
2019-04-07T10:47:01.540Z,21.77
2019-04-07T10:50:08.783Z,20.02
2019-04-07T10:53:06.695Z,19.62
2019-04-07T10:56:12.720Z,21.48
2019-04-07T10:59:12.568Z,21.77
2019-04-07T11:05:26.068Z,18.17
2019-04-07T11:08:18.255Z,18.87
2019-04-07T11:11:23.153Z,18.90
2019-04-07T11:14:29.388Z,19.48
2019-04-07T11:17:19.378Z,18.80
2019-04-07T11:20:06.006Z,17.15
2019-04-07T11:22:59.088Z,19.42
2019-04-07T11:26:04.544Z,18.92
2019-04-07T11:28:53.759Z,17.27
2019-04-07T11:31:40.911Z,18.33
2019-04-07T11:38:00.351Z,18.30
2019-04-07T11:41:03.452Z,17.27
2019-04-07T11:43:53.385Z,15.93
2019-04-07T11:46:58.239Z,14.57
2019-04-07T11:49:46.104Z,15.15
2019-04-07T11:52:33.337Z,13.50
2019-04-07T11:55:26.204Z,13.45
2019-04-07T11:58:33.410Z,15.20
2019-04-07T12:01:24.209Z,12.90
2019-04-07T12:04:13.961Z,13.82
2019-04-07T12:07:19.093Z,14.13
2019-04-07T12:10:06.502Z,15.45
2019-04-07T12:13:00.201Z,13.77
2019-04-07T12:15:46.353Z,15.70
2019-04-07T12:18:36.398Z,14.73
2019-04-07T12:21:25.456Z,16.75
2019-04-07T12:24:25.928Z,16.17
2019-04-07T12:27:23.931Z,18.23
2019-04-07T12:30:13.253Z,17.70
2019-04-07T12:33:09.008Z,16.30
2019-04-07T12:36:14.335Z,16.95
2019-04-07T12:39:01.778Z,16.08
2019-04-07T12:42:08.302Z,18.98
2019-04-07T12:44:55.976Z,18.85
2019-04-07T12:47:45.949Z,17.00
2019-04-07T12:50:33.809Z,17.65
2019-04-07T12:53:38.969Z,18.85
2019-04-07T12:56:43.516Z,17.80
2019-04-07T12:59:33.700Z,18.20
2019-04-07T13:02:27.169Z,18.75
2019-04-07T13:05:34.592Z,18.02
2019-04-07T13:08:24.007Z,17.02
2019-04-07T13:11:24.685Z,17.12
2019-04-07T13:14:03.631Z,16.98
2019-04-07T13:17:07.340Z,16.15
2019-04-07T13:19:53.477Z,16.87
2019-04-07T13:22:49.966Z,17.30
2019-04-07T13:25:37.496Z,17.12
2019-04-07T13:28:27.193Z,17.33
2019-04-07T13:31:26.371Z,16.20
2019-04-07T13:34:31.067Z,15.30
2019-04-07T13:40:31.721Z,15.15
2019-04-07T13:43:19.027Z,15.23
2019-04-07T13:46:37.951Z,17.20
2019-04-07T13:49:42.202Z,16.35
2019-04-07T13:52:32.378Z,17.48
2019-04-07T13:55:40.942Z,15.30
2019-04-07T13:58:32.967Z,16.23
2019-04-07T14:01:18.592Z,15.98
2019-04-07T14:04:16.737Z,14.80
2019-04-07T14:07:21.912Z,15.38
2019-04-07T14:10:14.662Z,14.07
2019-04-07T14:13:06.227Z,13.95
2019-04-07T14:16:07.480Z,15.20
2019-04-07T14:19:03.602Z,14.80
2019-04-07T14:22:03.300Z,14.68
2019-04-07T14:24:52.708Z,13.68
2019-04-07T14:27:47.322Z,13.23
2019-04-07T14:30:49.905Z,14.32
2019-04-07T14:33:55.653Z,13.75
2019-04-07T14:36:45.764Z,14.60
2019-04-07T14:39:33.393Z,14.40
2019-04-07T14:42:20.436Z,13.55
2019-04-07T14:45:27.080Z,13.48
2019-04-07T14:48:31.488Z,14.00
2019-04-07T14:51:21.546Z,12.98
2019-04-07T14:54:19.511Z,13.88
2019-04-07T14:57:15.428Z,13.52
2019-04-07T15:00:02.169Z,13.13
2019-04-07T15:02:49.852Z,12.90
2019-04-07T15:05:45.064Z,12.37
2019-04-07T15:08:32.934Z,12.40
2019-04-07T15:11:25.745Z,12.23
2019-04-07T15:14:13.571Z,12.32
2019-04-07T15:17:00.378Z,14.60
2019-04-07T15:19:47.727Z,13.15
2019-04-07T15:22:34.619Z,12.30
2019-04-07T15:25:21.551Z,13.07
2019-04-07T15:28:09.017Z,13.18
2019-04-07T15:30:56.819Z,13.50
2019-04-07T15:33:43.518Z,13.10
2019-04-07T15:36:31.115Z,12.50
2019-04-07T15:39:18.286Z,12.98
2019-04-07T15:42:06.509Z,13.38
2019-04-07T15:48:00.594Z,11.57
2019-04-07T15:50:46.284Z,11.80
2019-04-07T15:53:51.529Z,11.55
2019-04-07T15:56:34.368Z,11.95
2019-04-07T15:59:21.626Z,11.70
2019-04-07T16:02:10.824Z,11.38
2019-04-07T16:05:03.709Z,11.70
2019-04-07T16:07:53.192Z,13.27
2019-04-07T16:10:36.331Z,13.20
2019-04-07T16:13:23.858Z,14.80
2019-04-07T16:16:10.085Z,15.80
2019-04-07T16:18:57.983Z,14.23
2019-04-07T16:21:45.699Z,12.68
2019-04-07T16:24:32.770Z,13.77
2019-04-07T16:27:19.600Z,14.03
2019-04-07T16:30:08.548Z,13.10
2019-04-07T16:32:54.842Z,13.77
2019-04-07T16:35:43.931Z,13.20
2019-04-07T16:38:30.210Z,13.30
2019-04-07T16:41:16.760Z,12.63
2019-04-07T16:44:07.006Z,14.68
2019-04-07T16:46:54.673Z,13.38
2019-04-07T16:49:38.239Z,15.85
2019-04-07T16:52:26.567Z,12.88
2019-04-07T16:55:31.504Z,13.73
2019-04-07T17:01:25.423Z,13.38
2019-04-07T17:04:14.796Z,13.90
2019-04-07T17:07:05.021Z,14.20
2019-04-07T17:09:48.937Z,13.95
2019-04-07T17:12:43.916Z,14.43
2019-04-07T17:15:30.039Z,13.30
2019-04-07T17:18:35.589Z,13.77
2019-04-07T17:21:22.901Z,13.57
2019-04-07T17:24:11.115Z,13.38
2019-04-07T17:26:58.233Z,13.80
2019-04-07T17:29:46.751Z,14.25
2019-04-07T17:32:35.459Z,13.48
2019-04-07T17:35:19.402Z,14.10
2019-04-07T17:38:06.876Z,14.30
2019-04-07T17:40:53.351Z,12.98
2019-04-07T17:43:49.426Z,14.60
2019-04-07T17:46:36.597Z,13.68
2019-04-07T17:49:26.316Z,14.35
2019-04-07T17:52:29.115Z,15.18
2019-04-07T17:55:25.257Z,14.80
2019-04-07T17:58:10.046Z,15.63
2019-04-07T18:00:56.527Z,15.10
2019-04-07T18:03:47.325Z,14.67
2019-04-07T18:09:44.918Z,14.43
2019-04-07T18:12:45.454Z,14.98
2019-04-07T18:15:36.270Z,13.52
2019-04-07T18:18:30.403Z,13.57
2019-04-07T18:21:35.029Z,14.98
2019-04-07T18:24:22.698Z,14.45
2019-04-07T18:27:17.123Z,15.20
2019-04-07T18:30:08.311Z,14.73
2019-04-07T18:32:54.263Z,13.98
2019-04-07T18:35:44.160Z,14.25
2019-04-07T18:41:52.083Z,13.52
2019-04-07T18:44:41.221Z,13.55
2019-04-07T18:51:13.228Z,13.13
2019-04-07T18:54:00.355Z,13.23
2019-04-07T18:56:59.192Z,13.60
2019-04-07T19:00:03.883Z,13.52
2019-04-07T19:03:00.433Z,14.27
2019-04-07T19:06:06.034Z,13.27
2019-04-07T19:08:54.383Z,12.65
2019-04-07T19:11:47.026Z,12.45
2019-04-07T19:14:44.480Z,13.48
2019-04-07T19:17:28.171Z,14.50
2019-04-07T19:20:34.125Z,13.73
2019-04-07T19:23:27.170Z,13.70
2019-04-07T19:29:43.900Z,14.43
2019-04-07T19:32:38.811Z,14.77
2019-04-07T19:35:28.249Z,13.90
2019-04-07T19:41:11.038Z,15.45
2019-04-07T19:43:58.386Z,15.02
2019-04-07T19:46:48.653Z,14.82
2019-04-07T19:49:38.970Z,14.25
2019-04-07T19:52:43.896Z,14.73
2019-04-07T19:55:40.778Z,16.83
2019-04-07T19:58:45.648Z,16.08
2019-04-07T20:01:42.210Z,14.57
2019-04-07T20:04:28.767Z,15.50
2019-04-07T20:07:23.064Z,16.37
2019-04-07T20:10:28.611Z,15.80
2019-04-07T20:13:19.882Z,14.77
2019-04-07T20:19:38.237Z,14.50
2019-04-07T20:22:29.089Z,14.23
2019-04-07T20:25:35.223Z,15.65
2019-04-07T20:28:32.485Z,14.27
2019-04-07T20:34:30.831Z,16.83
2019-04-07T20:37:26.207Z,16.55
2019-04-07T20:40:23.642Z,15.80
2019-04-07T20:43:25.594Z,15.20
2019-04-07T20:46:31.612Z,14.45
2019-04-07T21:28:41.209Z,14.55
2019-04-07T21:31:28.737Z,14.05
2019-04-07T21:34:26.920Z,14.73
2019-04-07T21:56:48.873Z,14.40
2019-04-07T22:19:15.098Z,13.95
2019-04-07T22:40:42.530Z,14.45
2019-04-07T23:24:10.944Z,12.37
2019-04-07T23:26:58.529Z,14.30
2019-04-07T23:29:44.709Z,13.47
2019-04-07T23:44:56.039Z,14.57
2019-04-07T23:47:45.868Z,16.73
